Terminal Aerodrome Forecast
Issued by NWS

Home | Current Version | Previous Version | Text Only | Print | Product List | Glossary On
Versions: 1 2 3 4 5 6 7 8 9 10 11 12 13 14
000
FTUS44 KEPZ 282326
TAFTCS
TAF
KTCS 282326Z 2900/2924 VRB04KT P6SM VCTS SCT080CB BKN250
     FM290200 35006KT P6SM SCT080 BKN200
     FM291000 01010KT P6SM FEW080 SCT200
     FM291900 03010KT P6SM VCTS SCT070CB BKN150=

USA.gov is the U.S. government's official web portal to all federal, state and local government web resources and services.